Pensacola International Airport

Airport
ICAO code: 
KPNS
Summary
ICAO Region: 
NAM
Territory: 
Location: 
Pensacola, Florida,
Coordinates: 
Aerial View: 
30° 28' 19.829" N, 87° 11' 16.648" W
Metar
Observation
KPNS 021153Z 00000KT 10SM CLR 11/10 A3016 RMK AO2 SLP215 T01110100 10128 20094 53004
Station
Pensacola, Pensacola Regional Airport
Date/Time
2021-12-02 11:53:00
Wind direction
Wind speed
00 kts
Lowest cloud amount
n/a
Temperature
11.1°C
Dew point
10°C
Humidity
92%
Weather condition
n/a

Description

Pensacola International Airport, formerly known as Pensacola Gulf Coast Regional Airport, is a public airport located 4.83 km northeast of the city of Pensacola in Escambia County, Florida.

Climatology

Humid “subtropical” climate (Köppen climate classification Cfa) - characterized by hot, humid summers and cool winters. Significant amounts of precipitation occur in all seasons in most areas. Winter rainfall (and sometimes snowfall) is associated with large storms that the westerlies steer from west to east. Most summer rainfall occurs during thunderstorms and occasional tropical storms (hurricanes).

Runways

Designator Length Width Surface Rops
8/26 2134 46 ASP Yes/Yes
17/35 2135 46 ASP Yes/Yes
Airport map: 
Aerial View: 

SKYbrary Partners:

Safety knowledge contributed by: